sensor_id;sensor_type;location;lat;lon;timestamp;P1;durP1;ratioP1;P2;durP2;ratioP2
19095;SDS011;9680;52.520;13.332;2023-03-08T00:00:49;5.03;;;2.10;;
19095;SDS011;9680;52.520;13.332;2023-03-08T00:03:16;6.33;;;1.87;;
19095;SDS011;9680;52.520;13.332;2023-03-08T00:05:43;4.47;;;1.57;;
19095;SDS011;9680;52.520;13.332;2023-03-08T00:08:11;5.43;;;1.50;;
19095;SDS011;9680;52.520;13.332;2023-03-08T00:10:38;5.37;;;1.47;;
19095;SDS011;9680;52.520;13.332;2023-03-08T00:13:05;6.10;;;1.50;;
19095;SDS011;9680;52.520;13.332;2023-03-08T00:15:32;8.30;;;3.00;;
19095;SDS011;9680;52.520;13.332;2023-03-08T00:17:58;9.20;;;2.70;;
19095;SDS011;9680;52.520;13.332;2023-03-08T00:20:25;9.73;;;2.03;;
19095;SDS011;9680;52.520;13.332;2023-03-08T00:22:52;5.70;;;2.47;;
19095;SDS011;9680;52.520;13.332;2023-03-08T00:25:20;7.50;;;2.40;;
19095;SDS011;9680;52.520;13.332;2023-03-08T00:27:47;6.60;;;1.83;;
19095;SDS011;9680;52.520;13.332;2023-03-08T00:30:14;6.33;;;2.03;;
19095;SDS011;9680;52.520;13.332;2023-03-08T00:32:41;5.90;;;1.77;;
19095;SDS011;9680;52.520;13.332;2023-03-08T00:35:11;8.73;;;2.40;;
19095;SDS011;9680;52.520;13.332;2023-03-08T00:37:38;7.40;;;2.70;;
19095;SDS011;9680;52.520;13.332;2023-03-08T00:40:06;5.10;;;2.20;;
19095;SDS011;9680;52.520;13.332;2023-03-08T00:42:35;7.67;;;2.10;;
19095;SDS011;9680;52.520;13.332;2023-03-08T00:45:02;10.43;;;2.60;;
19095;SDS011;9680;52.520;13.332;2023-03-08T00:47:29;7.70;;;2.27;;
19095;SDS011;9680;52.520;13.332;2023-03-08T00:49:57;5.80;;;2.27;;
19095;SDS011;9680;52.520;13.332;2023-03-08T00:52:24;4.90;;;1.67;;
19095;SDS011;9680;52.520;13.332;2023-03-08T00:54:51;4.83;;;1.60;;
19095;SDS011;9680;52.520;13.332;2023-03-08T00:57:18;6.80;;;2.20;;
19095;SDS011;9680;52.520;13.332;2023-03-08T00:59:46;5.93;;;1.93;;
19095;SDS011;9680;52.520;13.332;2023-03-08T01:02:13;6.10;;;2.00;;
19095;SDS011;9680;52.520;13.332;2023-03-08T01:04:40;6.27;;;2.53;;
19095;SDS011;9680;52.520;13.332;2023-03-08T01:07:06;3.77;;;1.87;;
19095;SDS011;9680;52.520;13.332;2023-03-08T01:09:33;6.17;;;2.00;;
19095;SDS011;9680;52.520;13.332;2023-03-08T01:12:00;5.87;;;2.60;;
19095;SDS011;9680;52.520;13.332;2023-03-08T01:14:28;7.27;;;2.20;;
19095;SDS011;9680;52.520;13.332;2023-03-08T01:16:56;5.13;;;2.10;;
19095;SDS011;9680;52.520;13.332;2023-03-08T01:19:23;9.43;;;2.47;;
19095;SDS011;9680;52.520;13.332;2023-03-08T01:21:50;6.97;;;2.10;;
19095;SDS011;9680;52.520;13.332;2023-03-08T01:24:17;8.37;;;2.27;;
19095;SDS011;9680;52.520;13.332;2023-03-08T01:26:43;7.50;;;2.10;;
19095;SDS011;9680;52.520;13.332;2023-03-08T01:29:10;12.93;;;2.80;;
19095;SDS011;9680;52.520;13.332;2023-03-08T01:31:37;4.70;;;2.07;;
19095;SDS011;9680;52.520;13.332;2023-03-08T01:34:05;8.97;;;2.60;;
19095;SDS011;9680;52.520;13.332;2023-03-08T01:36:32;6.77;;;2.90;;
19095;SDS011;9680;52.520;13.332;2023-03-08T01:38:59;11.73;;;3.30;;
19095;SDS011;9680;52.520;13.332;2023-03-08T01:41:27;6.17;;;2.70;;
19095;SDS011;9680;52.520;13.332;2023-03-08T01:43:55;7.70;;;3.07;;
19095;SDS011;9680;52.520;13.332;2023-03-08T01:46:24;7.10;;;3.03;;
19095;SDS011;9680;52.520;13.332;2023-03-08T01:49:01;5.43;;;2.43;;
19095;SDS011;9680;52.520;13.332;2023-03-08T01:51:34;10.00;;;3.00;;
19095;SDS011;9680;52.520;13.332;2023-03-08T01:54:06;7.73;;;3.10;;
19095;SDS011;9680;52.520;13.332;2023-03-08T01:56:36;9.67;;;3.60;;
19095;SDS011;9680;52.520;13.332;2023-03-08T01:59:04;13.70;;;4.13;;
19095;SDS011;9680;52.520;13.332;2023-03-08T02:01:32;11.23;;;4.07;;
19095;SDS011;9680;52.520;13.332;2023-03-08T02:04:02;9.50;;;3.33;;
19095;SDS011;9680;52.520;13.332;2023-03-08T02:06:30;10.10;;;3.70;;
19095;SDS011;9680;52.520;13.332;2023-03-08T02:08:59;15.20;;;3.57;;
19095;SDS011;9680;52.520;13.332;2023-03-08T02:11:29;11.77;;;3.87;;
19095;SDS011;9680;52.520;13.332;2023-03-08T02:13:57;9.23;;;3.93;;
19095;SDS011;9680;52.520;13.332;2023-03-08T02:16:26;11.40;;;4.10;;
19095;SDS011;9680;52.520;13.332;2023-03-08T02:18:55;9.93;;;3.70;;
19095;SDS011;9680;52.520;13.332;2023-03-08T02:21:23;10.10;;;4.10;;
19095;SDS011;9680;52.520;13.332;2023-03-08T02:23:52;11.97;;;3.67;;
19095;SDS011;9680;52.520;13.332;2023-03-08T02:26:20;10.27;;;4.10;;
19095;SDS011;9680;52.520;13.332;2023-03-08T02:28:47;12.00;;;4.50;;
19095;SDS011;9680;52.520;13.332;2023-03-08T02:31:14;13.30;;;4.60;;
19095;SDS011;9680;52.520;13.332;2023-03-08T02:33:43;14.03;;;4.47;;
19095;SDS011;9680;52.520;13.332;2023-03-08T02:36:10;10.93;;;4.03;;
19095;SDS011;9680;52.520;13.332;2023-03-08T02:38:36;11.80;;;4.40;;
19095;SDS011;9680;52.520;13.332;2023-03-08T02:41:05;14.40;;;4.43;;
19095;SDS011;9680;52.520;13.332;2023-03-08T02:43:32;14.73;;;5.17;;
19095;SDS011;9680;52.520;13.332;2023-03-08T02:45:58;11.50;;;4.43;;
19095;SDS011;9680;52.520;13.332;2023-03-08T02:48:25;13.83;;;4.60;;
19095;SDS011;9680;52.520;13.332;2023-03-08T02:50:52;14.70;;;5.37;;
19095;SDS011;9680;52.520;13.332;2023-03-08T02:53:19;15.63;;;5.07;;
19095;SDS011;9680;52.520;13.332;2023-03-08T02:55:46;12.30;;;4.87;;
19095;SDS011;9680;52.520;13.332;2023-03-08T02:58:15;10.83;;;4.80;;
19095;SDS011;9680;52.520;13.332;2023-03-08T03:00:42;17.00;;;5.00;;
19095;SDS011;9680;52.520;13.332;2023-03-08T03:03:09;13.43;;;5.50;;
19095;SDS011;9680;52.520;13.332;2023-03-08T03:05:39;13.17;;;5.10;;
19095;SDS011;9680;52.520;13.332;2023-03-08T03:08:07;13.27;;;5.40;;
19095;SDS011;9680;52.520;13.332;2023-03-08T03:10:34;12.43;;;5.10;;
19095;SDS011;9680;52.520;13.332;2023-03-08T03:13:02;14.13;;;5.00;;
19095;SDS011;9680;52.520;13.332;2023-03-08T03:15:32;13.33;;;5.37;;
19095;SDS011;9680;52.520;13.332;2023-03-08T03:17:59;18.43;;;5.07;;
19095;SDS011;9680;52.520;13.332;2023-03-08T03:20:26;14.83;;;5.50;;
19095;SDS011;9680;52.520;13.332;2023-03-08T03:22:53;12.27;;;5.20;;
19095;SDS011;9680;52.520;13.332;2023-03-08T03:25:26;11.23;;;5.13;;
19095;SDS011;9680;52.520;13.332;2023-03-08T03:27:54;14.23;;;5.43;;
19095;SDS011;9680;52.520;13.332;2023-03-08T03:30:23;12.10;;;5.30;;
19095;SDS011;9680;52.520;13.332;2023-03-08T03:32:52;16.30;;;5.47;;
19095;SDS011;9680;52.520;13.332;2023-03-08T03:35:24;15.63;;;5.40;;
19095;SDS011;9680;52.520;13.332;2023-03-08T03:37:51;11.77;;;5.20;;
19095;SDS011;9680;52.520;13.332;2023-03-08T03:40:19;15.47;;;5.20;;
19095;SDS011;9680;52.520;13.332;2023-03-08T03:42:51;13.90;;;5.53;;
19095;SDS011;9680;52.520;13.332;2023-03-08T03:45:19;17.37;;;5.60;;
19095;SDS011;9680;52.520;13.332;2023-03-08T03:47:46;12.77;;;5.40;;
19095;SDS011;9680;52.520;13.332;2023-03-08T03:50:15;15.53;;;5.73;;
19095;SDS011;9680;52.520;13.332;2023-03-08T03:52:51;11.33;;;5.13;;
19095;SDS011;9680;52.520;13.332;2023-03-08T03:55:18;15.87;;;5.47;;
19095;SDS011;9680;52.520;13.332;2023-03-08T03:57:46;12.07;;;4.93;;
19095;SDS011;9680;52.520;13.332;2023-03-08T04:00:16;19.97;;;5.57;;
19095;SDS011;9680;52.520;13.332;2023-03-08T04:02:50;17.33;;;6.33;;
19095;SDS011;9680;52.520;13.332;2023-03-08T04:05:20;14.93;;;5.73;;
19095;SDS011;9680;52.520;13.332;2023-03-08T04:07:50;14.20;;;5.23;;
19095;SDS011;9680;52.520;13.332;2023-03-08T04:10:20;17.53;;;5.33;;
19095;SDS011;9680;52.520;13.332;2023-03-08T04:12:48;13.90;;;5.93;;
19095;SDS011;9680;52.520;13.332;2023-03-08T04:15:17;16.70;;;5.60;;
19095;SDS011;9680;52.520;13.332;2023-03-08T04:17:44;14.93;;;5.83;;
19095;SDS011;9680;52.520;13.332;2023-03-08T04:20:12;14.43;;;6.10;;
19095;SDS011;9680;52.520;13.332;2023-03-08T04:22:46;16.10;;;5.17;;
19095;SDS011;9680;52.520;13.332;2023-03-08T04:25:20;13.87;;;5.90;;
19095;SDS011;9680;52.520;13.332;2023-03-08T04:27:53;12.67;;;5.17;;
19095;SDS011;9680;52.520;13.332;2023-03-08T04:30:20;15.90;;;5.67;;
19095;SDS011;9680;52.520;13.332;2023-03-08T04:32:48;14.53;;;5.43;;
19095;SDS011;9680;52.520;13.332;2023-03-08T04:35:15;14.40;;;5.27;;
19095;SDS011;9680;52.520;13.332;2023-03-08T04:37:47;15.20;;;5.70;;
19095;SDS011;9680;52.520;13.332;2023-03-08T04:40:16;13.57;;;5.37;;
19095;SDS011;9680;52.520;13.332;2023-03-08T04:42:53;14.60;;;5.70;;
19095;SDS011;9680;52.520;13.332;2023-03-08T04:45:25;11.80;;;5.07;;
19095;SDS011;9680;52.520;13.332;2023-03-08T04:47:55;19.03;;;5.80;;
19095;SDS011;9680;52.520;13.332;2023-03-08T04:50:22;13.10;;;5.73;;
19095;SDS011;9680;52.520;13.332;2023-03-08T04:52:52;13.17;;;5.17;;
19095;SDS011;9680;52.520;13.332;2023-03-08T04:55:19;15.43;;;5.03;;
19095;SDS011;9680;52.520;13.332;2023-03-08T04:57:46;11.17;;;5.17;;
19095;SDS011;9680;52.520;13.332;2023-03-08T05:00:13;15.70;;;5.43;;
19095;SDS011;9680;52.520;13.332;2023-03-08T05:02:50;14.70;;;5.50;;
19095;SDS011;9680;52.520;13.332;2023-03-08T05:05:18;11.20;;;5.30;;
19095;SDS011;9680;52.520;13.332;2023-03-08T05:07:45;14.53;;;5.80;;
19095;SDS011;9680;52.520;13.332;2023-03-08T05:10:14;15.40;;;6.13;;
19095;SDS011;9680;52.520;13.332;2023-03-08T05:12:41;18.63;;;5.63;;
19095;SDS011;9680;52.520;13.332;2023-03-08T05:15:09;17.70;;;5.57;;
19095;SDS011;9680;52.520;13.332;2023-03-08T05:17:36;14.03;;;5.40;;
19095;SDS011;9680;52.520;13.332;2023-03-08T05:20:04;14.03;;;5.57;;
19095;SDS011;9680;52.520;13.332;2023-03-08T05:22:36;13.53;;;5.13;;
19095;SDS011;9680;52.520;13.332;2023-03-08T05:25:03;16.00;;;5.77;;
19095;SDS011;9680;52.520;13.332;2023-03-08T05:27:33;13.10;;;5.70;;
19095;SDS011;9680;52.520;13.332;2023-03-08T05:30:01;15.00;;;5.57;;
19095;SDS011;9680;52.520;13.332;2023-03-08T05:32:30;14.47;;;5.30;;
19095;SDS011;9680;52.520;13.332;2023-03-08T05:34:57;18.93;;;5.43;;
19095;SDS011;9680;52.520;13.332;2023-03-08T05:37:30;14.23;;;5.83;;
19095;SDS011;9680;52.520;13.332;2023-03-08T05:40:01;18.13;;;5.00;;
19095;SDS011;9680;52.520;13.332;2023-03-08T05:42:33;14.57;;;4.97;;
19095;SDS011;9680;52.520;13.332;2023-03-08T05:45:00;13.10;;;5.40;;
19095;SDS011;9680;52.520;13.332;2023-03-08T05:47:32;12.97;;;5.03;;
19095;SDS011;9680;52.520;13.332;2023-03-08T05:49:59;11.67;;;5.33;;
19095;SDS011;9680;52.520;13.332;2023-03-08T05:52:29;17.70;;;5.30;;
19095;SDS011;9680;52.520;13.332;2023-03-08T05:54:57;11.23;;;4.93;;
19095;SDS011;9680;52.520;13.332;2023-03-08T05:57:24;13.80;;;5.60;;
19095;SDS011;9680;52.520;13.332;2023-03-08T05:59:53;12.43;;;5.37;;
19095;SDS011;9680;52.520;13.332;2023-03-08T06:02:21;12.00;;;4.80;;
19095;SDS011;9680;52.520;13.332;2023-03-08T06:04:51;12.37;;;5.20;;
19095;SDS011;9680;52.520;13.332;2023-03-08T06:07:21;16.10;;;5.77;;
19095;SDS011;9680;52.520;13.332;2023-03-08T06:09:53;13.00;;;5.43;;
19095;SDS011;9680;52.520;13.332;2023-03-08T06:12:21;12.97;;;5.07;;
19095;SDS011;9680;52.520;13.332;2023-03-08T06:14:53;15.53;;;5.97;;
19095;SDS011;9680;52.520;13.332;2023-03-08T06:17:23;13.60;;;5.17;;
19095;SDS011;9680;52.520;13.332;2023-03-08T06:19:52;11.83;;;5.10;;
19095;SDS011;9680;52.520;13.332;2023-03-08T06:22:20;14.07;;;5.33;;
19095;SDS011;9680;52.520;13.332;2023-03-08T06:24:47;15.03;;;5.97;;
19095;SDS011;9680;52.520;13.332;2023-03-08T06:27:18;11.93;;;5.20;;
19095;SDS011;9680;52.520;13.332;2023-03-08T06:29:46;11.80;;;5.57;;
19095;SDS011;9680;52.520;13.332;2023-03-08T06:32:16;11.10;;;5.27;;
19095;SDS011;9680;52.520;13.332;2023-03-08T06:34:43;11.53;;;4.93;;
19095;SDS011;9680;52.520;13.332;2023-03-08T06:37:12;14.37;;;5.40;;
19095;SDS011;9680;52.520;13.332;2023-03-08T06:39:39;15.83;;;5.67;;
19095;SDS011;9680;52.520;13.332;2023-03-08T06:42:06;14.00;;;5.40;;
19095;SDS011;9680;52.520;13.332;2023-03-08T06:44:34;12.00;;;5.37;;
19095;SDS011;9680;52.520;13.332;2023-03-08T06:47:02;11.70;;;5.50;;
19095;SDS011;9680;52.520;13.332;2023-03-08T06:49:30;12.13;;;5.40;;
19095;SDS011;9680;52.520;13.332;2023-03-08T06:51:57;12.53;;;5.47;;
19095;SDS011;9680;52.520;13.332;2023-03-08T06:54:25;11.83;;;5.20;;
19095;SDS011;9680;52.520;13.332;2023-03-08T06:56:52;13.63;;;5.00;;
19095;SDS011;9680;52.520;13.332;2023-03-08T06:59:19;12.97;;;5.60;;
19095;SDS011;9680;52.520;13.332;2023-03-08T07:01:46;11.60;;;5.67;;
19095;SDS011;9680;52.520;13.332;2023-03-08T07:04:13;13.30;;;5.47;;
19095;SDS011;9680;52.520;13.332;2023-03-08T07:06:43;10.10;;;4.90;;
19095;SDS011;9680;52.520;13.332;2023-03-08T07:09:10;10.97;;;4.80;;
19095;SDS011;9680;52.520;13.332;2023-03-08T07:11:38;15.03;;;5.73;;
19095;SDS011;9680;52.520;13.332;2023-03-08T07:14:05;12.53;;;5.17;;
19095;SDS011;9680;52.520;13.332;2023-03-08T07:16:31;13.20;;;5.40;;
19095;SDS011;9680;52.520;13.332;2023-03-08T07:18:59;11.97;;;5.13;;
19095;SDS011;9680;52.520;13.332;2023-03-08T07:21:27;13.03;;;5.43;;
19095;SDS011;9680;52.520;13.332;2023-03-08T07:23:55;14.70;;;5.33;;
19095;SDS011;9680;52.520;13.332;2023-03-08T07:26:22;11.67;;;5.40;;
19095;SDS011;9680;52.520;13.332;2023-03-08T07:28:49;13.60;;;5.70;;
19095;SDS011;9680;52.520;13.332;2023-03-08T07:31:16;15.40;;;5.50;;
19095;SDS011;9680;52.520;13.332;2023-03-08T07:33:43;13.57;;;5.53;;
19095;SDS011;9680;52.520;13.332;2023-03-08T07:36:11;14.27;;;5.67;;
19095;SDS011;9680;52.520;13.332;2023-03-08T07:38:38;14.67;;;5.60;;
19095;SDS011;9680;52.520;13.332;2023-03-08T07:41:06;15.60;;;5.70;;
19095;SDS011;9680;52.520;13.332;2023-03-08T07:43:33;12.27;;;5.40;;
19095;SDS011;9680;52.520;13.332;2023-03-08T07:46:08;11.70;;;5.73;;
19095;SDS011;9680;52.520;13.332;2023-03-08T07:48:35;11.97;;;5.40;;
19095;SDS011;9680;52.520;13.332;2023-03-08T07:51:02;12.80;;;5.33;;
19095;SDS011;9680;52.520;13.332;2023-03-08T07:53:33;12.47;;;5.47;;
19095;SDS011;9680;52.520;13.332;2023-03-08T07:56:00;11.60;;;5.50;;
19095;SDS011;9680;52.520;13.332;2023-03-08T07:58:29;15.27;;;5.60;;
19095;SDS011;9680;52.520;13.332;2023-03-08T08:00:56;13.17;;;5.57;;
19095;SDS011;9680;52.520;13.332;2023-03-08T08:03:23;13.37;;;5.40;;
19095;SDS011;9680;52.520;13.332;2023-03-08T08:05:51;11.03;;;5.20;;
19095;SDS011;9680;52.520;13.332;2023-03-08T08:08:18;12.53;;;5.17;;
19095;SDS011;9680;52.520;13.332;2023-03-08T08:10:45;17.47;;;5.67;;
19095;SDS011;9680;52.520;13.332;2023-03-08T08:13:12;13.17;;;5.43;;
19095;SDS011;9680;52.520;13.332;2023-03-08T08:15:40;12.70;;;5.13;;
19095;SDS011;9680;52.520;13.332;2023-03-08T08:18:07;14.37;;;5.13;;
19095;SDS011;9680;52.520;13.332;2023-03-08T08:20:34;13.10;;;5.50;;
19095;SDS011;9680;52.520;13.332;2023-03-08T08:23:22;12.73;;;4.43;;
19095;SDS011;9680;52.520;13.332;2023-03-08T08:25:51;14.03;;;5.60;;
19095;SDS011;9680;52.520;13.332;2023-03-08T08:28:21;14.63;;;6.00;;
19095;SDS011;9680;52.520;13.332;2023-03-08T08:31:01;13.43;;;5.47;;
19095;SDS011;9680;52.520;13.332;2023-03-08T08:33:35;14.30;;;5.10;;
19095;SDS011;9680;52.520;13.332;2023-03-08T08:36:03;9.50;;;4.67;;
19095;SDS011;9680;52.520;13.332;2023-03-08T08:38:31;12.63;;;4.87;;
19095;SDS011;9680;52.520;13.332;2023-03-08T08:40:58;11.50;;;4.67;;
19095;SDS011;9680;52.520;13.332;2023-03-08T08:43:25;11.33;;;5.30;;
19095;SDS011;9680;52.520;13.332;2023-03-08T08:45:53;15.87;;;5.23;;
19095;SDS011;9680;52.520;13.332;2023-03-08T08:48:23;11.53;;;4.37;;
19095;SDS011;9680;52.520;13.332;2023-03-08T08:50:51;9.97;;;4.70;;
19095;SDS011;9680;52.520;13.332;2023-03-08T08:53:18;9.97;;;4.63;;
19095;SDS011;9680;52.520;13.332;2023-03-08T08:55:45;11.83;;;3.93;;
19095;SDS011;9680;52.520;13.332;2023-03-08T08:58:13;8.30;;;3.93;;
19095;SDS011;9680;52.520;13.332;2023-03-08T09:00:40;9.63;;;3.63;;
19095;SDS011;9680;52.520;13.332;2023-03-08T09:03:07;13.30;;;4.17;;
19095;SDS011;9680;52.520;13.332;2023-03-08T09:11:24;9.63;;;3.43;;
19095;SDS011;9680;52.520;13.332;2023-03-08T09:13:58;8.87;;;3.80;;
19095;SDS011;9680;52.520;13.332;2023-03-08T09:16:27;9.80;;;3.47;;
19095;SDS011;9680;52.520;13.332;2023-03-08T09:18:55;5.30;;;2.90;;
19095;SDS011;9680;52.520;13.332;2023-03-08T09:21:25;7.67;;;3.00;;
19095;SDS011;9680;52.520;13.332;2023-03-08T09:23:54;8.80;;;3.00;;
19095;SDS011;9680;52.520;13.332;2023-03-08T09:26:21;8.87;;;3.10;;
19095;SDS011;9680;52.520;13.332;2023-03-08T09:28:48;7.53;;;3.00;;
19095;SDS011;9680;52.520;13.332;2023-03-08T09:31:15;4.80;;;2.43;;
19095;SDS011;9680;52.520;13.332;2023-03-08T09:33:43;3.93;;;2.37;;
19095;SDS011;9680;52.520;13.332;2023-03-08T09:36:12;5.17;;;2.40;;
19095;SDS011;9680;52.520;13.332;2023-03-08T09:38:42;4.70;;;2.50;;
19095;SDS011;9680;52.520;13.332;2023-03-08T09:41:16;6.17;;;2.47;;
19095;SDS011;9680;52.520;13.332;2023-03-08T09:44:03;5.40;;;2.50;;
19095;SDS011;9680;52.520;13.332;2023-03-08T09:46:48;7.43;;;2.73;;
19095;SDS011;9680;52.520;13.332;2023-03-08T09:49:20;7.43;;;2.70;;
19095;SDS011;9680;52.520;13.332;2023-03-08T09:51:55;5.77;;;2.70;;
19095;SDS011;9680;52.520;13.332;2023-03-08T09:54:31;5.20;;;2.53;;
19095;SDS011;9680;52.520;13.332;2023-03-08T09:57:02;6.03;;;2.67;;
19095;SDS011;9680;52.520;13.332;2023-03-08T09:59:37;4.97;;;2.67;;
19095;SDS011;9680;52.520;13.332;2023-03-08T10:02:16;7.53;;;2.80;;
19095;SDS011;9680;52.520;13.332;2023-03-08T10:04:52;5.80;;;2.77;;
19095;SDS011;9680;52.520;13.332;2023-03-08T10:07:30;5.33;;;2.40;;
19095;SDS011;9680;52.520;13.332;2023-03-08T10:10:10;5.40;;;2.40;;
19095;SDS011;9680;52.520;13.332;2023-03-08T10:12:51;4.70;;;2.47;;
19095;SDS011;9680;52.520;13.332;2023-03-08T10:15:27;8.83;;;3.00;;
19095;SDS011;9680;52.520;13.332;2023-03-08T10:17:59;4.73;;;2.60;;
19095;SDS011;9680;52.520;13.332;2023-03-08T10:20:30;7.93;;;2.80;;
19095;SDS011;9680;52.520;13.332;2023-03-08T10:23:02;5.57;;;2.23;;
19095;SDS011;9680;52.520;13.332;2023-03-08T10:25:39;5.80;;;2.40;;
19095;SDS011;9680;52.520;13.332;2023-03-08T10:28:08;4.63;;;2.60;;
19095;SDS011;9680;52.520;13.332;2023-03-08T10:30:39;6.40;;;2.67;;
19095;SDS011;9680;52.520;13.332;2023-03-08T10:33:09;5.63;;;2.37;;
19095;SDS011;9680;52.520;13.332;2023-03-08T10:35:49;4.77;;;2.30;;
19095;SDS011;9680;52.520;13.332;2023-03-08T10:38:22;6.83;;;2.47;;
19095;SDS011;9680;52.520;13.332;2023-03-08T10:40:59;3.83;;;2.20;;
19095;SDS011;9680;52.520;13.332;2023-03-08T10:43:28;4.47;;;2.47;;
19095;SDS011;9680;52.520;13.332;2023-03-08T10:45:58;6.83;;;2.53;;
19095;SDS011;9680;52.520;13.332;2023-03-08T10:48:27;3.80;;;2.30;;
19095;SDS011;9680;52.520;13.332;2023-03-08T10:50:57;3.70;;;2.03;;
19095;SDS011;9680;52.520;13.332;2023-03-08T10:53:25;6.03;;;3.00;;
19095;SDS011;9680;52.520;13.332;2023-03-08T10:58:28;4.93;;;2.50;;
19095;SDS011;9680;52.520;13.332;2023-03-08T11:01:00;6.00;;;2.90;;
19095;SDS011;9680;52.520;13.332;2023-03-08T11:06:12;5.73;;;2.83;;
19095;SDS011;9680;52.520;13.332;2023-03-08T11:08:49;4.23;;;2.50;;
19095;SDS011;9680;52.520;13.332;2023-03-08T11:11:19;4.70;;;2.43;;
19095;SDS011;9680;52.520;13.332;2023-03-08T11:16:40;6.20;;;3.17;;
19095;SDS011;9680;52.520;13.332;2023-03-08T11:37:31;9.20;;;3.60;;
19095;SDS011;9680;52.520;13.332;2023-03-08T11:40:08;8.20;;;3.50;;
19095;SDS011;9680;52.520;13.332;2023-03-08T11:42:48;6.77;;;3.40;;
19095;SDS011;9680;52.520;13.332;2023-03-08T11:45:22;5.37;;;3.10;;
19095;SDS011;9680;52.520;13.332;2023-03-08T11:51:11;4.77;;;2.80;;
19095;SDS011;9680;52.520;13.332;2023-03-08T11:53:52;7.20;;;2.43;;
19095;SDS011;9680;52.520;13.332;2023-03-08T11:56:40;5.60;;;2.47;;
19095;SDS011;9680;52.520;13.332;2023-03-08T11:59:16;8.33;;;2.53;;
19095;SDS011;9680;52.520;13.332;2023-03-08T12:01:51;5.13;;;2.60;;
19095;SDS011;9680;52.520;13.332;2023-03-08T12:04:23;6.80;;;2.57;;
19095;SDS011;9680;52.520;13.332;2023-03-08T12:06:58;7.33;;;2.60;;
19095;SDS011;9680;52.520;13.332;2023-03-08T12:09:29;4.77;;;2.20;;
19095;SDS011;9680;52.520;13.332;2023-03-08T12:12:02;5.30;;;2.63;;
19095;SDS011;9680;52.520;13.332;2023-03-08T12:14:36;5.03;;;2.50;;
19095;SDS011;9680;52.520;13.332;2023-03-08T12:17:09;9.57;;;2.93;;
19095;SDS011;9680;52.520;13.332;2023-03-08T12:19:41;4.67;;;2.60;;
19095;SDS011;9680;52.520;13.332;2023-03-08T12:22:29;6.73;;;3.00;;
19095;SDS011;9680;52.520;13.332;2023-03-08T12:25:07;4.53;;;2.60;;
19095;SDS011;9680;52.520;13.332;2023-03-08T12:27:42;5.33;;;2.70;;
19095;SDS011;9680;52.520;13.332;2023-03-08T12:30:19;4.77;;;2.50;;
19095;SDS011;9680;52.520;13.332;2023-03-08T12:32:54;4.93;;;2.90;;
19095;SDS011;9680;52.520;13.332;2023-03-08T12:35:25;5.33;;;2.73;;
19095;SDS011;9680;52.520;13.332;2023-03-08T12:37:56;4.63;;;2.53;;
19095;SDS011;9680;52.520;13.332;2023-03-08T12:40:29;5.73;;;2.53;;
19095;SDS011;9680;52.520;13.332;2023-03-08T12:43:06;5.77;;;2.90;;
19095;SDS011;9680;52.520;13.332;2023-03-08T12:45:36;7.90;;;2.80;;
19095;SDS011;9680;52.520;13.332;2023-03-08T12:48:17;8.10;;;2.93;;
19095;SDS011;9680;52.520;13.332;2023-03-08T12:50:54;6.77;;;2.97;;
19095;SDS011;9680;52.520;13.332;2023-03-08T12:53:29;5.57;;;2.70;;
19095;SDS011;9680;52.520;13.332;2023-03-08T12:56:04;7.10;;;2.87;;
19095;SDS011;9680;52.520;13.332;2023-03-08T12:58:46;7.70;;;3.10;;
19095;SDS011;9680;52.520;13.332;2023-03-08T13:04:05;6.00;;;3.00;;
19095;SDS011;9680;52.520;13.332;2023-03-08T13:10:00;4.53;;;2.63;;
19095;SDS011;9680;52.520;13.332;2023-03-08T13:12:39;11.70;;;3.07;;
19095;SDS011;9680;52.520;13.332;2023-03-08T13:15:21;6.47;;;3.03;;
19095;SDS011;9680;52.520;13.332;2023-03-08T13:17:58;5.30;;;3.00;;
19095;SDS011;9680;52.520;13.332;2023-03-08T13:20:40;6.33;;;3.40;;
19095;SDS011;9680;52.520;13.332;2023-03-08T13:23:31;7.03;;;3.20;;
19095;SDS011;9680;52.520;13.332;2023-03-08T13:28:56;6.07;;;3.17;;
19095;SDS011;9680;52.520;13.332;2023-03-08T13:31:26;10.07;;;3.63;;
19095;SDS011;9680;52.520;13.332;2023-03-08T13:33:58;6.63;;;3.40;;
19095;SDS011;9680;52.520;13.332;2023-03-08T13:36:26;6.93;;;3.80;;
19095;SDS011;9680;52.520;13.332;2023-03-08T13:38:57;7.80;;;3.67;;
19095;SDS011;9680;52.520;13.332;2023-03-08T13:41:36;8.77;;;4.23;;
19095;SDS011;9680;52.520;13.332;2023-03-08T13:44:06;7.37;;;3.57;;
19095;SDS011;9680;52.520;13.332;2023-03-08T13:49:44;6.60;;;3.80;;
19095;SDS011;9680;52.520;13.332;2023-03-08T13:52:16;7.37;;;3.77;;
19095;SDS011;9680;52.520;13.332;2023-03-08T13:54:49;7.43;;;3.67;;
19095;SDS011;9680;52.520;13.332;2023-03-08T13:57:20;7.93;;;3.53;;
19095;SDS011;9680;52.520;13.332;2023-03-08T13:59:50;8.23;;;3.80;;
19095;SDS011;9680;52.520;13.332;2023-03-08T14:02:19;8.30;;;4.03;;
19095;SDS011;9680;52.520;13.332;2023-03-08T14:04:48;8.10;;;4.07;;
19095;SDS011;9680;52.520;13.332;2023-03-08T14:07:19;8.90;;;4.20;;
19095;SDS011;9680;52.520;13.332;2023-03-08T14:09:48;7.73;;;3.83;;
19095;SDS011;9680;52.520;13.332;2023-03-08T14:12:16;8.67;;;4.40;;
19095;SDS011;9680;52.520;13.332;2023-03-08T14:14:50;9.20;;;4.27;;
19095;SDS011;9680;52.520;13.332;2023-03-08T14:17:20;10.37;;;4.10;;
19095;SDS011;9680;52.520;13.332;2023-03-08T14:19:53;13.50;;;5.20;;
19095;SDS011;9680;52.520;13.332;2023-03-08T14:22:21;7.60;;;3.80;;
19095;SDS011;9680;52.520;13.332;2023-03-08T14:24:52;9.60;;;4.33;;
19095;SDS011;9680;52.520;13.332;2023-03-08T14:27:29;8.67;;;4.00;;
19095;SDS011;9680;52.520;13.332;2023-03-08T14:37:13;13.57;;;5.10;;
19095;SDS011;9680;52.520;13.332;2023-03-08T14:40:20;9.20;;;4.37;;
19095;SDS011;9680;52.520;13.332;2023-03-08T14:42:56;10.57;;;4.37;;
19095;SDS011;9680;52.520;13.332;2023-03-08T14:45:28;11.40;;;4.40;;
19095;SDS011;9680;52.520;13.332;2023-03-08T14:48:00;9.03;;;4.50;;
19095;SDS011;9680;52.520;13.332;2023-03-08T14:50:31;9.53;;;4.60;;
19095;SDS011;9680;52.520;13.332;2023-03-08T14:53:00;12.27;;;5.03;;
19095;SDS011;9680;52.520;13.332;2023-03-08T14:55:29;12.90;;;5.13;;
19095;SDS011;9680;52.520;13.332;2023-03-08T14:58:00;14.87;;;4.70;;
19095;SDS011;9680;52.520;13.332;2023-03-08T15:00:29;9.37;;;4.93;;
19095;SDS011;9680;52.520;13.332;2023-03-08T15:03:10;11.63;;;4.70;;
19095;SDS011;9680;52.520;13.332;2023-03-08T15:05:38;10.47;;;4.53;;
19095;SDS011;9680;52.520;13.332;2023-03-08T15:08:05;10.70;;;4.80;;
19095;SDS011;9680;52.520;13.332;2023-03-08T15:10:36;12.07;;;5.10;;
19095;SDS011;9680;52.520;13.332;2023-03-08T15:13:05;13.47;;;4.93;;
19095;SDS011;9680;52.520;13.332;2023-03-08T15:15:36;11.03;;;5.17;;
19095;SDS011;9680;52.520;13.332;2023-03-08T15:18:04;13.43;;;5.03;;
19095;SDS011;9680;52.520;13.332;2023-03-08T15:20:31;11.93;;;5.27;;
19095;SDS011;9680;52.520;13.332;2023-03-08T15:23:00;9.90;;;5.10;;
19095;SDS011;9680;52.520;13.332;2023-03-08T15:25:33;11.53;;;4.97;;
19095;SDS011;9680;52.520;13.332;2023-03-08T15:28:02;13.97;;;5.40;;
19095;SDS011;9680;52.520;13.332;2023-03-08T15:30:34;14.10;;;5.33;;
19095;SDS011;9680;52.520;13.332;2023-03-08T15:33:01;13.67;;;5.87;;
19095;SDS011;9680;52.520;13.332;2023-03-08T15:35:29;13.63;;;5.50;;
19095;SDS011;9680;52.520;13.332;2023-03-08T15:37:56;11.13;;;4.93;;
19095;SDS011;9680;52.520;13.332;2023-03-08T15:40:26;11.57;;;4.97;;
19095;SDS011;9680;52.520;13.332;2023-03-08T15:42:54;12.10;;;5.07;;
19095;SDS011;9680;52.520;13.332;2023-03-08T15:45:22;15.27;;;5.37;;
19095;SDS011;9680;52.520;13.332;2023-03-08T15:47:56;13.40;;;5.53;;
19095;SDS011;9680;52.520;13.332;2023-03-08T15:50:25;12.67;;;5.20;;
19095;SDS011;9680;52.520;13.332;2023-03-08T15:52:53;11.07;;;4.90;;